sensor_id;sensor_type;location;lat;lon;timestamp;P1;durP1;ratioP1;P2;durP2;ratioP2
84042;SDS011;74129;52.540;13.416;2024-01-30T00:00:05;9.90;;;5.60;;
84042;SDS011;74129;52.540;13.416;2024-01-30T00:02:56;9.60;;;5.30;;
84042;SDS011;74129;52.540;13.416;2024-01-30T00:05:33;8.40;;;4.70;;
84042;SDS011;74129;52.540;13.416;2024-01-30T00:08:06;11.20;;;5.30;;
84042;SDS011;74129;52.540;13.416;2024-01-30T00:10:47;10.10;;;5.50;;
84042;SDS011;74129;52.540;13.416;2024-01-30T00:13:16;10.30;;;5.80;;
84042;SDS011;74129;52.540;13.416;2024-01-30T00:15:47;9.80;;;5.70;;
84042;SDS011;74129;52.540;13.416;2024-01-30T00:18:20;9.40;;;5.50;;
84042;SDS011;74129;52.540;13.416;2024-01-30T00:20:56;12.20;;;6.20;;
84042;SDS011;74129;52.540;13.416;2024-01-30T00:23:46;10.70;;;5.80;;
84042;SDS011;74129;52.540;13.416;2024-01-30T00:26:16;12.10;;;5.80;;
84042;SDS011;74129;52.540;13.416;2024-01-30T00:29:03;10.30;;;5.30;;
84042;SDS011;74129;52.540;13.416;2024-01-30T00:31:38;11.40;;;5.80;;
84042;SDS011;74129;52.540;13.416;2024-01-30T00:34:05;10.00;;;5.30;;
84042;SDS011;74129;52.540;13.416;2024-01-30T00:36:34;10.10;;;5.20;;
84042;SDS011;74129;52.540;13.416;2024-01-30T00:39:03;11.60;;;5.50;;
84042;SDS011;74129;52.540;13.416;2024-01-30T00:41:44;11.70;;;6.30;;
84042;SDS011;74129;52.540;13.416;2024-01-30T00:44:15;10.80;;;6.00;;
84042;SDS011;74129;52.540;13.416;2024-01-30T00:46:52;7.70;;;5.30;;
84042;SDS011;74129;52.540;13.416;2024-01-30T00:49:46;10.00;;;5.80;;
84042;SDS011;74129;52.540;13.416;2024-01-30T00:52:21;8.80;;;5.50;;
84042;SDS011;74129;52.540;13.416;2024-01-30T00:54:55;11.00;;;5.30;;
84042;SDS011;74129;52.540;13.416;2024-01-30T00:57:33;10.70;;;5.70;;
84042;SDS011;74129;52.540;13.416;2024-01-30T01:00:08;12.50;;;6.00;;
84042;SDS011;74129;52.540;13.416;2024-01-30T01:02:38;9.60;;;5.50;;
84042;SDS011;74129;52.540;13.416;2024-01-30T01:05:07;7.90;;;5.00;;
84042;SDS011;74129;52.540;13.416;2024-01-30T01:07:34;10.70;;;5.50;;
84042;SDS011;74129;52.540;13.416;2024-01-30T01:10:01;12.40;;;5.90;;
84042;SDS011;74129;52.540;13.416;2024-01-30T01:12:45;9.40;;;5.50;;
84042;SDS011;74129;52.540;13.416;2024-01-30T01:15:19;10.90;;;5.50;;
84042;SDS011;74129;52.540;13.416;2024-01-30T01:17:51;12.40;;;6.20;;
84042;SDS011;74129;52.540;13.416;2024-01-30T01:20:35;11.80;;;5.30;;
84042;SDS011;74129;52.540;13.416;2024-01-30T01:23:05;13.70;;;6.00;;
84042;SDS011;74129;52.540;13.416;2024-01-30T01:25:36;9.90;;;5.50;;
84042;SDS011;74129;52.540;13.416;2024-01-30T01:28:15;9.60;;;5.30;;
84042;SDS011;74129;52.540;13.416;2024-01-30T01:30:45;9.20;;;5.90;;
84042;SDS011;74129;52.540;13.416;2024-01-30T01:36:08;11.40;;;5.80;;
84042;SDS011;74129;52.540;13.416;2024-01-30T01:39:09;14.70;;;6.40;;
84042;SDS011;74129;52.540;13.416;2024-01-30T01:41:46;14.00;;;5.60;;
84042;SDS011;74129;52.540;13.416;2024-01-30T01:44:14;9.90;;;6.10;;
84042;SDS011;74129;52.540;13.416;2024-01-30T01:46:41;12.50;;;5.70;;
84042;SDS011;74129;52.540;13.416;2024-01-30T01:49:11;9.90;;;5.90;;
84042;SDS011;74129;52.540;13.416;2024-01-30T01:51:40;12.90;;;6.50;;
84042;SDS011;74129;52.540;13.416;2024-01-30T01:54:12;10.20;;;5.80;;
84042;SDS011;74129;52.540;13.416;2024-01-30T01:56:40;11.40;;;6.30;;
84042;SDS011;74129;52.540;13.416;2024-01-30T01:59:10;17.30;;;6.60;;
84042;SDS011;74129;52.540;13.416;2024-01-30T02:01:37;11.30;;;5.90;;
84042;SDS011;74129;52.540;13.416;2024-01-30T02:04:04;9.70;;;6.00;;
84042;SDS011;74129;52.540;13.416;2024-01-30T02:06:31;13.40;;;6.50;;
84042;SDS011;74129;52.540;13.416;2024-01-30T02:08:58;11.60;;;6.20;;
84042;SDS011;74129;52.540;13.416;2024-01-30T02:11:28;12.40;;;5.90;;
84042;SDS011;74129;52.540;13.416;2024-01-30T02:13:54;9.90;;;6.20;;
84042;SDS011;74129;52.540;13.416;2024-01-30T02:16:21;9.80;;;6.00;;
84042;SDS011;74129;52.540;13.416;2024-01-30T02:18:48;12.00;;;5.80;;
84042;SDS011;74129;52.540;13.416;2024-01-30T02:21:15;10.10;;;5.70;;
84042;SDS011;74129;52.540;13.416;2024-01-30T02:23:46;11.90;;;6.60;;
84042;SDS011;74129;52.540;13.416;2024-01-30T02:26:19;13.00;;;6.80;;
84042;SDS011;74129;52.540;13.416;2024-01-30T02:28:46;13.20;;;5.90;;
84042;SDS011;74129;52.540;13.416;2024-01-30T02:31:13;9.80;;;5.60;;
84042;SDS011;74129;52.540;13.416;2024-01-30T02:33:39;10.00;;;5.90;;
84042;SDS011;74129;52.540;13.416;2024-01-30T02:36:06;13.70;;;6.60;;
84042;SDS011;74129;52.540;13.416;2024-01-30T02:38:35;12.00;;;5.90;;
84042;SDS011;74129;52.540;13.416;2024-01-30T02:41:04;8.50;;;5.70;;
84042;SDS011;74129;52.540;13.416;2024-01-30T02:43:31;12.40;;;6.80;;
84042;SDS011;74129;52.540;13.416;2024-01-30T02:46:00;10.80;;;6.10;;
84042;SDS011;74129;52.540;13.416;2024-01-30T02:48:27;9.80;;;5.60;;
84042;SDS011;74129;52.540;13.416;2024-01-30T02:50:53;9.60;;;5.80;;
84042;SDS011;74129;52.540;13.416;2024-01-30T02:53:20;9.60;;;6.10;;
84042;SDS011;74129;52.540;13.416;2024-01-30T02:56:00;10.20;;;5.70;;
84042;SDS011;74129;52.540;13.416;2024-01-30T02:58:29;10.30;;;5.90;;
84042;SDS011;74129;52.540;13.416;2024-01-30T03:00:56;8.40;;;5.50;;
84042;SDS011;74129;52.540;13.416;2024-01-30T03:03:31;11.40;;;5.90;;
84042;SDS011;74129;52.540;13.416;2024-01-30T03:06:03;9.90;;;6.00;;
84042;SDS011;74129;52.540;13.416;2024-01-30T03:08:33;9.50;;;4.80;;
84042;SDS011;74129;52.540;13.416;2024-01-30T03:11:03;9.10;;;5.20;;
84042;SDS011;74129;52.540;13.416;2024-01-30T03:13:35;9.80;;;5.70;;
84042;SDS011;74129;52.540;13.416;2024-01-30T03:16:05;9.70;;;6.00;;
84042;SDS011;74129;52.540;13.416;2024-01-30T03:18:38;9.40;;;4.90;;
84042;SDS011;74129;52.540;13.416;2024-01-30T03:21:04;9.40;;;5.70;;
84042;SDS011;74129;52.540;13.416;2024-01-30T03:23:33;10.20;;;5.90;;
84042;SDS011;74129;52.540;13.416;2024-01-30T03:26:07;11.60;;;6.20;;
84042;SDS011;74129;52.540;13.416;2024-01-30T03:28:44;10.10;;;5.60;;
84042;SDS011;74129;52.540;13.416;2024-01-30T03:31:13;10.60;;;5.50;;
84042;SDS011;74129;52.540;13.416;2024-01-30T03:33:54;9.80;;;6.10;;
84042;SDS011;74129;52.540;13.416;2024-01-30T03:36:26;9.50;;;5.50;;
84042;SDS011;74129;52.540;13.416;2024-01-30T03:38:53;8.30;;;5.30;;
84042;SDS011;74129;52.540;13.416;2024-01-30T03:41:22;11.90;;;5.90;;
84042;SDS011;74129;52.540;13.416;2024-01-30T03:43:51;11.00;;;5.80;;
84042;SDS011;74129;52.540;13.416;2024-01-30T03:46:20;9.60;;;5.80;;
84042;SDS011;74129;52.540;13.416;2024-01-30T03:48:54;10.30;;;5.70;;
84042;SDS011;74129;52.540;13.416;2024-01-30T03:51:21;10.50;;;5.80;;
84042;SDS011;74129;52.540;13.416;2024-01-30T03:53:50;10.20;;;5.20;;
84042;SDS011;74129;52.540;13.416;2024-01-30T03:56:16;9.90;;;5.70;;
84042;SDS011;74129;52.540;13.416;2024-01-30T03:59:01;9.40;;;5.40;;
84042;SDS011;74129;52.540;13.416;2024-01-30T04:04:21;9.50;;;5.80;;
84042;SDS011;74129;52.540;13.416;2024-01-30T04:06:47;8.70;;;5.30;;
84042;SDS011;74129;52.540;13.416;2024-01-30T04:09:16;9.10;;;5.50;;
84042;SDS011;74129;52.540;13.416;2024-01-30T04:11:46;8.70;;;5.70;;
84042;SDS011;74129;52.540;13.416;2024-01-30T04:14:24;10.50;;;5.90;;
84042;SDS011;74129;52.540;13.416;2024-01-30T04:16:55;12.10;;;5.80;;
84042;SDS011;74129;52.540;13.416;2024-01-30T04:19:36;10.00;;;6.20;;
84042;SDS011;74129;52.540;13.416;2024-01-30T04:24:51;8.40;;;5.10;;
84042;SDS011;74129;52.540;13.416;2024-01-30T04:27:27;9.50;;;5.30;;
84042;SDS011;74129;52.540;13.416;2024-01-30T04:30:05;10.40;;;7.00;;
84042;SDS011;74129;52.540;13.416;2024-01-30T04:32:45;9.70;;;5.80;;
84042;SDS011;74129;52.540;13.416;2024-01-30T04:35:42;8.10;;;5.00;;
84042;SDS011;74129;52.540;13.416;2024-01-30T04:38:35;9.20;;;5.80;;
84042;SDS011;74129;52.540;13.416;2024-01-30T04:41:12;10.40;;;5.30;;
84042;SDS011;74129;52.540;13.416;2024-01-30T04:43:39;9.80;;;5.20;;
84042;SDS011;74129;52.540;13.416;2024-01-30T04:46:18;8.40;;;5.50;;
84042;SDS011;74129;52.540;13.416;2024-01-30T04:48:50;12.90;;;6.10;;
84042;SDS011;74129;52.540;13.416;2024-01-30T04:51:17;9.40;;;6.50;;
84042;SDS011;74129;52.540;13.416;2024-01-30T04:54:03;11.40;;;6.30;;
84042;SDS011;74129;52.540;13.416;2024-01-30T04:56:35;10.50;;;5.90;;
84042;SDS011;74129;52.540;13.416;2024-01-30T04:59:02;8.90;;;5.70;;
84042;SDS011;74129;52.540;13.416;2024-01-30T05:01:35;9.70;;;5.80;;
84042;SDS011;74129;52.540;13.416;2024-01-30T05:04:07;10.90;;;6.00;;
84042;SDS011;74129;52.540;13.416;2024-01-30T05:06:36;9.00;;;5.40;;
84042;SDS011;74129;52.540;13.416;2024-01-30T05:09:09;8.20;;;5.60;;
84042;SDS011;74129;52.540;13.416;2024-01-30T05:11:48;8.30;;;5.40;;
84042;SDS011;74129;52.540;13.416;2024-01-30T05:14:26;9.50;;;6.00;;
84042;SDS011;74129;52.540;13.416;2024-01-30T05:16:58;9.30;;;6.20;;
84042;SDS011;74129;52.540;13.416;2024-01-30T05:19:35;11.60;;;6.70;;
84042;SDS011;74129;52.540;13.416;2024-01-30T05:22:05;11.70;;;6.20;;
84042;SDS011;74129;52.540;13.416;2024-01-30T05:24:35;9.60;;;5.70;;
84042;SDS011;74129;52.540;13.416;2024-01-30T05:27:02;9.30;;;6.00;;
84042;SDS011;74129;52.540;13.416;2024-01-30T05:29:32;9.70;;;5.90;;
84042;SDS011;74129;52.540;13.416;2024-01-30T05:32:01;7.50;;;5.30;;
84042;SDS011;74129;52.540;13.416;2024-01-30T05:34:45;8.60;;;5.60;;
84042;SDS011;74129;52.540;13.416;2024-01-30T05:37:16;11.20;;;5.60;;
84042;SDS011;74129;52.540;13.416;2024-01-30T05:39:49;10.90;;;5.70;;
84042;SDS011;74129;52.540;13.416;2024-01-30T05:43:06;12.10;;;5.50;;
84042;SDS011;74129;52.540;13.416;2024-01-30T05:45:34;9.80;;;5.60;;
84042;SDS011;74129;52.540;13.416;2024-01-30T05:48:04;10.40;;;5.50;;
84042;SDS011;74129;52.540;13.416;2024-01-30T05:50:36;11.70;;;6.20;;
84042;SDS011;74129;52.540;13.416;2024-01-30T05:53:17;10.40;;;6.20;;
84042;SDS011;74129;52.540;13.416;2024-01-30T05:55:47;10.20;;;6.00;;
84042;SDS011;74129;52.540;13.416;2024-01-30T05:58:25;10.70;;;6.10;;
84042;SDS011;74129;52.540;13.416;2024-01-30T06:01:03;11.80;;;5.80;;
84042;SDS011;74129;52.540;13.416;2024-01-30T06:03:55;8.30;;;5.10;;
84042;SDS011;74129;52.540;13.416;2024-01-30T06:06:30;11.70;;;6.30;;
84042;SDS011;74129;52.540;13.416;2024-01-30T06:09:23;8.70;;;5.30;;
84042;SDS011;74129;52.540;13.416;2024-01-30T06:11:52;11.80;;;6.60;;
84042;SDS011;74129;52.540;13.416;2024-01-30T06:14:19;20.90;;;13.50;;
84042;SDS011;74129;52.540;13.416;2024-01-30T06:16:51;105.00;;;49.90;;
84042;SDS011;74129;52.540;13.416;2024-01-30T06:19:40;175.50;;;75.10;;
84042;SDS011;74129;52.540;13.416;2024-01-30T06:22:19;46.70;;;23.00;;
84042;SDS011;74129;52.540;13.416;2024-01-30T06:25:22;25.10;;;15.30;;
84042;SDS011;74129;52.540;13.416;2024-01-30T06:28:14;20.70;;;9.60;;
84042;SDS011;74129;52.540;13.416;2024-01-30T06:31:13;11.60;;;6.70;;
84042;SDS011;74129;52.540;13.416;2024-01-30T06:33:59;10.70;;;6.20;;
84042;SDS011;74129;52.540;13.416;2024-01-30T06:36:34;9.70;;;5.90;;
84042;SDS011;74129;52.540;13.416;2024-01-30T06:39:12;9.40;;;5.70;;
84042;SDS011;74129;52.540;13.416;2024-01-30T06:41:58;10.60;;;6.00;;
84042;SDS011;74129;52.540;13.416;2024-01-30T06:44:38;11.70;;;6.10;;
84042;SDS011;74129;52.540;13.416;2024-01-30T06:47:30;13.60;;;7.40;;
84042;SDS011;74129;52.540;13.416;2024-01-30T06:50:16;13.60;;;7.40;;
84042;SDS011;74129;52.540;13.416;2024-01-30T06:55:52;14.40;;;8.10;;
84042;SDS011;74129;52.540;13.416;2024-01-30T06:58:24;15.50;;;8.10;;
84042;SDS011;74129;52.540;13.416;2024-01-30T07:00:51;20.80;;;10.50;;
84042;SDS011;74129;52.540;13.416;2024-01-30T07:03:18;26.10;;;12.00;;
84042;SDS011;74129;52.540;13.416;2024-01-30T07:05:47;15.20;;;8.40;;
84042;SDS011;74129;52.540;13.416;2024-01-30T07:08:23;20.40;;;10.20;;
84042;SDS011;74129;52.540;13.416;2024-01-30T07:10:57;30.40;;;12.60;;
84042;SDS011;74129;52.540;13.416;2024-01-30T07:13:27;28.30;;;13.60;;
84042;SDS011;74129;52.540;13.416;2024-01-30T07:15:56;25.10;;;9.70;;
84042;SDS011;74129;52.540;13.416;2024-01-30T07:18:25;16.40;;;9.50;;
84042;SDS011;74129;52.540;13.416;2024-01-30T07:20:55;12.90;;;7.80;;
84042;SDS011;74129;52.540;13.416;2024-01-30T07:23:24;13.20;;;7.60;;
84042;SDS011;74129;52.540;13.416;2024-01-30T07:26:03;11.40;;;7.20;;
84042;SDS011;74129;52.540;13.416;2024-01-30T07:28:35;16.40;;;6.80;;
84042;SDS011;74129;52.540;13.416;2024-01-30T07:31:16;14.40;;;6.90;;
84042;SDS011;74129;52.540;13.416;2024-01-30T07:33:51;12.10;;;7.30;;
84042;SDS011;74129;52.540;13.416;2024-01-30T07:36:20;20.20;;;10.00;;
84042;SDS011;74129;52.540;13.416;2024-01-30T07:38:47;13.00;;;7.30;;
84042;SDS011;74129;52.540;13.416;2024-01-30T07:41:26;12.70;;;6.80;;
84042;SDS011;74129;52.540;13.416;2024-01-30T07:44:18;11.40;;;6.90;;
84042;SDS011;74129;52.540;13.416;2024-01-30T07:46:50;11.60;;;6.20;;
84042;SDS011;74129;52.540;13.416;2024-01-30T07:49:24;13.50;;;6.50;;
84042;SDS011;74129;52.540;13.416;2024-01-30T07:51:54;13.50;;;7.60;;
84042;SDS011;74129;52.540;13.416;2024-01-30T07:54:26;16.30;;;7.50;;
84042;SDS011;74129;52.540;13.416;2024-01-30T07:59:44;14.90;;;7.40;;
84042;SDS011;74129;52.540;13.416;2024-01-30T08:02:32;14.60;;;7.10;;
84042;SDS011;74129;52.540;13.416;2024-01-30T08:05:01;21.70;;;9.10;;
84042;SDS011;74129;52.540;13.416;2024-01-30T08:07:37;14.00;;;6.90;;
84042;SDS011;74129;52.540;13.416;2024-01-30T08:10:04;14.50;;;6.90;;
84042;SDS011;74129;52.540;13.416;2024-01-30T08:12:31;15.50;;;7.10;;
84042;SDS011;74129;52.540;13.416;2024-01-30T08:15:05;11.40;;;6.30;;
84042;SDS011;74129;52.540;13.416;2024-01-30T08:17:38;10.60;;;6.10;;
84042;SDS011;74129;52.540;13.416;2024-01-30T08:20:27;12.20;;;6.50;;
84042;SDS011;74129;52.540;13.416;2024-01-30T08:23:05;14.50;;;7.00;;
84042;SDS011;74129;52.540;13.416;2024-01-30T08:25:57;12.30;;;6.80;;
84042;SDS011;74129;52.540;13.416;2024-01-30T08:28:40;14.40;;;6.90;;
84042;SDS011;74129;52.540;13.416;2024-01-30T08:31:22;11.80;;;6.70;;
84042;SDS011;74129;52.540;13.416;2024-01-30T08:33:57;11.00;;;6.70;;
84042;SDS011;74129;52.540;13.416;2024-01-30T08:36:38;17.30;;;7.10;;
84042;SDS011;74129;52.540;13.416;2024-01-30T08:39:11;14.60;;;7.40;;
84042;SDS011;74129;52.540;13.416;2024-01-30T08:41:59;11.10;;;6.50;;
84042;SDS011;74129;52.540;13.416;2024-01-30T08:44:26;14.40;;;7.50;;
84042;SDS011;74129;52.540;13.416;2024-01-30T08:46:55;13.40;;;7.50;;
84042;SDS011;74129;52.540;13.416;2024-01-30T08:49:22;12.90;;;7.10;;
84042;SDS011;74129;52.540;13.416;2024-01-30T08:51:49;13.00;;;7.20;;
84042;SDS011;74129;52.540;13.416;2024-01-30T08:54:27;13.90;;;7.20;;
84042;SDS011;74129;52.540;13.416;2024-01-30T08:57:06;9.70;;;6.30;;
84042;SDS011;74129;52.540;13.416;2024-01-30T08:59:41;11.50;;;6.90;;
84042;SDS011;74129;52.540;13.416;2024-01-30T09:02:14;13.30;;;6.50;;
84042;SDS011;74129;52.540;13.416;2024-01-30T09:04:44;10.70;;;7.50;;
84042;SDS011;74129;52.540;13.416;2024-01-30T09:07:20;9.80;;;6.00;;
84042;SDS011;74129;52.540;13.416;2024-01-30T09:09:47;14.10;;;6.90;;
84042;SDS011;74129;52.540;13.416;2024-01-30T09:14:46;13.00;;;7.50;;
84042;SDS011;74129;52.540;13.416;2024-01-30T09:17:18;9.50;;;6.30;;
84042;SDS011;74129;52.540;13.416;2024-01-30T09:22:36;13.10;;;7.30;;
84042;SDS011;74129;52.540;13.416;2024-01-30T09:25:11;12.50;;;6.80;;
84042;SDS011;74129;52.540;13.416;2024-01-30T09:27:47;16.30;;;6.50;;
84042;SDS011;74129;52.540;13.416;2024-01-30T09:30:31;12.00;;;6.00;;
84042;SDS011;74129;52.540;13.416;2024-01-30T09:33:11;13.70;;;7.20;;
84042;SDS011;74129;52.540;13.416;2024-01-30T09:35:43;11.10;;;7.00;;
84042;SDS011;74129;52.540;13.416;2024-01-30T09:38:15;11.80;;;7.20;;
84042;SDS011;74129;52.540;13.416;2024-01-30T09:40:51;12.60;;;6.90;;
84042;SDS011;74129;52.540;13.416;2024-01-30T09:43:40;15.90;;;6.80;;
84042;SDS011;74129;52.540;13.416;2024-01-30T09:46:14;13.70;;;6.90;;
84042;SDS011;74129;52.540;13.416;2024-01-30T09:49:06;13.70;;;6.90;;
84042;SDS011;74129;52.540;13.416;2024-01-30T09:51:42;11.40;;;6.50;;
84042;SDS011;74129;52.540;13.416;2024-01-30T09:54:17;10.40;;;6.00;;
84042;SDS011;74129;52.540;13.416;2024-01-30T09:56:48;11.10;;;6.50;;
84042;SDS011;74129;52.540;13.416;2024-01-30T09:59:23;16.80;;;7.30;;
84042;SDS011;74129;52.540;13.416;2024-01-30T10:01:51;11.00;;;6.30;;
84042;SDS011;74129;52.540;13.416;2024-01-30T10:04:20;12.60;;;6.80;;
84042;SDS011;74129;52.540;13.416;2024-01-30T10:06:47;11.80;;;6.70;;
84042;SDS011;74129;52.540;13.416;2024-01-30T10:09:24;10.80;;;6.70;;
84042;SDS011;74129;52.540;13.416;2024-01-30T10:11:53;10.30;;;6.40;;
84042;SDS011;74129;52.540;13.416;2024-01-30T10:14:37;13.20;;;6.40;;
84042;SDS011;74129;52.540;13.416;2024-01-30T10:17:15;8.90;;;6.10;;
84042;SDS011;74129;52.540;13.416;2024-01-30T10:20:10;10.20;;;6.30;;
84042;SDS011;74129;52.540;13.416;2024-01-30T10:23:01;10.50;;;5.40;;
84042;SDS011;74129;52.540;13.416;2024-01-30T10:25:28;11.30;;;6.70;;
84042;SDS011;74129;52.540;13.416;2024-01-30T10:28:00;11.10;;;6.30;;
84042;SDS011;74129;52.540;13.416;2024-01-30T10:30:56;10.30;;;6.40;;
84042;SDS011;74129;52.540;13.416;2024-01-30T10:33:26;9.60;;;5.80;;
84042;SDS011;74129;52.540;13.416;2024-01-30T10:36:04;8.10;;;5.50;;
84042;SDS011;74129;52.540;13.416;2024-01-30T10:38:42;9.40;;;5.50;;
84042;SDS011;74129;52.540;13.416;2024-01-30T10:41:12;9.20;;;5.50;;
84042;SDS011;74129;52.540;13.416;2024-01-30T10:43:47;9.50;;;5.70;;
84042;SDS011;74129;52.540;13.416;2024-01-30T10:46:33;9.60;;;5.40;;
84042;SDS011;74129;52.540;13.416;2024-01-30T10:49:24;9.60;;;5.30;;
84042;SDS011;74129;52.540;13.416;2024-01-30T10:51:58;11.40;;;6.00;;
84042;SDS011;74129;52.540;13.416;2024-01-30T10:54:24;9.00;;;5.60;;
84042;SDS011;74129;52.540;13.416;2024-01-30T10:56:53;13.60;;;6.80;;
84042;SDS011;74129;52.540;13.416;2024-01-30T10:59:22;9.60;;;5.90;;
84042;SDS011;74129;52.540;13.416;2024-01-30T11:01:53;10.20;;;6.20;;
84042;SDS011;74129;52.540;13.416;2024-01-30T11:04:23;10.90;;;5.60;;
84042;SDS011;74129;52.540;13.416;2024-01-30T11:06:55;8.20;;;5.30;;
84042;SDS011;74129;52.540;13.416;2024-01-30T11:09:50;10.70;;;5.90;;
84042;SDS011;74129;52.540;13.416;2024-01-30T11:12:40;11.40;;;5.60;;
84042;SDS011;74129;52.540;13.416;2024-01-30T11:15:16;7.60;;;4.80;;
84042;SDS011;74129;52.540;13.416;2024-01-30T11:17:53;10.00;;;5.80;;
84042;SDS011;74129;52.540;13.416;2024-01-30T11:20:25;10.70;;;5.90;;
84042;SDS011;74129;52.540;13.416;2024-01-30T11:23:15;11.40;;;5.60;;
84042;SDS011;74129;52.540;13.416;2024-01-30T11:25:43;11.70;;;5.80;;
84042;SDS011;74129;52.540;13.416;2024-01-30T11:31:11;12.50;;;5.90;;
84042;SDS011;74129;52.540;13.416;2024-01-30T11:34:01;9.80;;;5.50;;
84042;SDS011;74129;52.540;13.416;2024-01-30T11:36:36;12.40;;;5.90;;
84042;SDS011;74129;52.540;13.416;2024-01-30T11:39:28;10.80;;;6.00;;
84042;SDS011;74129;52.540;13.416;2024-01-30T11:42:07;9.80;;;6.00;;
84042;SDS011;74129;52.540;13.416;2024-01-30T11:44:59;11.20;;;6.20;;
84042;SDS011;74129;52.540;13.416;2024-01-30T11:47:43;10.60;;;5.90;;
84042;SDS011;74129;52.540;13.416;2024-01-30T11:56:07;11.60;;;6.30;;
84042;SDS011;74129;52.540;13.416;2024-01-30T11:58:42;9.30;;;5.30;;
84042;SDS011;74129;52.540;13.416;2024-01-30T12:01:24;11.70;;;6.20;;
84042;SDS011;74129;52.540;13.416;2024-01-30T12:03:56;9.00;;;5.20;;
84042;SDS011;74129;52.540;13.416;2024-01-30T12:06:23;9.60;;;5.90;;
84042;SDS011;74129;52.540;13.416;2024-01-30T12:08:56;12.50;;;6.80;;
84042;SDS011;74129;52.540;13.416;2024-01-30T12:11:27;11.30;;;6.20;;
84042;SDS011;74129;52.540;13.416;2024-01-30T12:14:06;11.00;;;6.20;;
84042;SDS011;74129;52.540;13.416;2024-01-30T12:16:36;10.30;;;5.60;;
84042;SDS011;74129;52.540;13.416;2024-01-30T12:19:03;13.60;;;6.20;;
84042;SDS011;74129;52.540;13.416;2024-01-30T12:21:30;12.80;;;5.70;;
84042;SDS011;74129;52.540;13.416;2024-01-30T12:23:57;14.30;;;6.90;;
84042;SDS011;74129;52.540;13.416;2024-01-30T12:26:28;12.50;;;6.10;;
84042;SDS011;74129;52.540;13.416;2024-01-30T12:28:58;9.50;;;6.10;;
84042;SDS011;74129;52.540;13.416;2024-01-30T12:31:35;9.00;;;5.90;;
84042;SDS011;74129;52.540;13.416;2024-01-30T12:34:05;11.20;;;7.00;;
84042;SDS011;74129;52.540;13.416;2024-01-30T12:36:34;9.90;;;6.70;;
84042;SDS011;74129;52.540;13.416;2024-01-30T12:39:24;13.00;;;6.80;;
84042;SDS011;74129;52.540;13.416;2024-01-30T12:41:53;14.80;;;7.00;;
84042;SDS011;74129;52.540;13.416;2024-01-30T12:44:20;10.70;;;6.20;;
84042;SDS011;74129;52.540;13.416;2024-01-30T12:47:02;10.30;;;6.30;;
84042;SDS011;74129;52.540;13.416;2024-01-30T12:50:00;12.10;;;6.90;;
84042;SDS011;74129;52.540;13.416;2024-01-30T12:52:30;9.70;;;6.20;;
84042;SDS011;74129;52.540;13.416;2024-01-30T12:55:10;10.20;;;6.70;;
84042;SDS011;74129;52.540;13.416;2024-01-30T12:57:36;16.40;;;7.60;;
84042;SDS011;74129;52.540;13.416;2024-01-30T13:00:06;9.20;;;6.00;;
84042;SDS011;74129;52.540;13.416;2024-01-30T13:02:42;9.70;;;6.20;;
84042;SDS011;74129;52.540;13.416;2024-01-30T13:05:14;11.60;;;7.10;;
84042;SDS011;74129;52.540;13.416;2024-01-30T13:07:50;12.40;;;6.00;;
84042;SDS011;74129;52.540;13.416;2024-01-30T13:10:17;11.40;;;6.80;;
84042;SDS011;74129;52.540;13.416;2024-01-30T13:12:54;12.70;;;6.40;;
84042;SDS011;74129;52.540;13.416;2024-01-30T13:15:23;12.50;;;6.20;;
84042;SDS011;74129;52.540;13.416;2024-01-30T13:17:50;16.50;;;7.10;;
84042;SDS011;74129;52.540;13.416;2024-01-30T13:20:17;9.20;;;6.30;;
84042;SDS011;74129;52.540;13.416;2024-01-30T13:22:51;12.30;;;6.60;;
84042;SDS011;74129;52.540;13.416;2024-01-30T13:25:18;12.50;;;6.50;;
84042;SDS011;74129;52.540;13.416;2024-01-30T13:30:34;12.00;;;6.50;;
84042;SDS011;74129;52.540;13.416;2024-01-30T13:33:15;10.80;;;6.90;;
84042;SDS011;74129;52.540;13.416;2024-01-30T13:35:42;10.90;;;6.20;;
84042;SDS011;74129;52.540;13.416;2024-01-30T13:38:09;9.50;;;6.30;;
84042;SDS011;74129;52.540;13.416;2024-01-30T13:40:36;10.60;;;6.50;;
84042;SDS011;74129;52.540;13.416;2024-01-30T13:43:10;9.50;;;6.40;;
84042;SDS011;74129;52.540;13.416;2024-01-30T13:45:39;9.50;;;6.50;;
84042;SDS011;74129;52.540;13.416;2024-01-30T13:48:08;8.60;;;5.40;;
84042;SDS011;74129;52.540;13.416;2024-01-30T13:53:04;13.00;;;6.20;;
84042;SDS011;74129;52.540;13.416;2024-01-30T13:55:36;11.50;;;6.60;;
84042;SDS011;74129;52.540;13.416;2024-01-30T13:58:03;11.30;;;6.40;;
84042;SDS011;74129;52.540;13.416;2024-01-30T14:00:33;11.50;;;6.30;;
84042;SDS011;74129;52.540;13.416;2024-01-30T14:03:02;9.70;;;5.70;;
84042;SDS011;74129;52.540;13.416;2024-01-30T14:08:48;14.20;;;7.60;;
84042;SDS011;74129;52.540;13.416;2024-01-30T14:11:20;12.10;;;6.20;;
84042;SDS011;74129;52.540;13.416;2024-01-30T14:13:49;10.90;;;6.70;;
84042;SDS011;74129;52.540;13.416;2024-01-30T14:16:27;11.90;;;6.30;;
84042;SDS011;74129;52.540;13.416;2024-01-30T14:18:56;9.90;;;6.10;;
84042;SDS011;74129;52.540;13.416;2024-01-30T14:21:23;11.00;;;6.40;;
84042;SDS011;74129;52.540;13.416;2024-01-30T14:24:02;13.40;;;6.20;;
84042;SDS011;74129;52.540;13.416;2024-01-30T14:26:29;9.30;;;6.10;;
84042;SDS011;74129;52.540;13.416;2024-01-30T14:28:58;10.70;;;7.30;;
84042;SDS011;74129;52.540;13.416;2024-01-30T14:31:24;11.50;;;6.60;;
84042;SDS011;74129;52.540;13.416;2024-01-30T14:33:51;11.30;;;6.40;;
84042;SDS011;74129;52.540;13.416;2024-01-30T14:36:28;8.90;;;6.10;;
84042;SDS011;74129;52.540;13.416;2024-01-30T14:39:17;12.90;;;6.20;;
84042;SDS011;74129;52.540;13.416;2024-01-30T14:42:08;11.80;;;6.10;;
84042;SDS011;74129;52.540;13.416;2024-01-30T14:44:34;13.80;;;7.30;;
84042;SDS011;74129;52.540;13.416;2024-01-30T14:47:01;8.40;;;6.50;;
84042;SDS011;74129;52.540;13.416;2024-01-30T14:49:31;10.30;;;6.10;;
84042;SDS011;74129;52.540;13.416;2024-01-30T14:51:58;10.70;;;6.60;;
84042;SDS011;74129;52.540;13.416;2024-01-30T14:54:34;9.60;;;6.30;;
84042;SDS011;74129;52.540;13.416;2024-01-30T14:57:06;7.70;;;5.00;;
84042;SDS011;74129;52.540;13.416;2024-01-30T14:59:35;10.00;;;6.20;;
84042;SDS011;74129;52.540;13.416;2024-01-30T15:02:17;9.60;;;6.20;;
84042;SDS011;74129;52.540;13.416;2024-01-30T15:04:49;12.50;;;6.30;;
84042;SDS011;74129;52.540;13.416;2024-01-30T15:07:18;11.60;;;6.00;;
84042;SDS011;74129;52.540;13.416;2024-01-30T15:09:48;11.00;;;6.20;;
84042;SDS011;74129;52.540;13.416;2024-01-30T15:12:20;9.30;;;5.10;;
84042;SDS011;74129;52.540;13.416;2024-01-30T15:14:54;10.10;;;6.00;;
84042;SDS011;74129;52.540;13.416;2024-01-30T15:17:27;13.80;;;6.20;;
84042;SDS011;74129;52.540;13.416;2024-01-30T15:20:08;10.90;;;6.60;;
84042;SDS011;74129;52.540;13.416;2024-01-30T15:22:38;9.10;;;5.80;;
84042;SDS011;74129;52.540;13.416;2024-01-30T15:25:16;10.90;;;6.20;;
84042;SDS011;74129;52.540;13.416;2024-01-30T15:27:58;9.80;;;6.50;;
84042;SDS011;74129;52.540;13.416;2024-01-30T15:30:45;10.80;;;6.10;;
84042;SDS011;74129;52.540;13.416;2024-01-30T15:33:15;11.80;;;6.10;;
84042;SDS011;74129;52.540;13.416;2024-01-30T15:35:44;13.50;;;6.70;;
84042;SDS011;74129;52.540;13.416;2024-01-30T15:38:13;11.90;;;6.80;;
84042;SDS011;74129;52.540;13.416;2024-01-30T15:40:41;9.30;;;5.90;;
84042;SDS011;74129;52.540;13.416;2024-01-30T15:43:08;11.50;;;6.20;;